sensor_id;sensor_type;location;lat;lon;timestamp;temperature;humidity
75964;DHT22;65820;44.726;37.764;2023-02-01T00:00:47;19.39;50.03
75964;DHT22;65820;44.726;37.764;2023-02-01T00:01:48;19.39;49.78
75964;DHT22;65820;44.726;37.764;2023-02-01T00:02:50;19.39;50.06
75964;DHT22;65820;44.726;37.764;2023-02-01T00:03:51;19.40;50.18
75964;DHT22;65820;44.726;37.764;2023-02-01T00:04:52;19.40;49.79
75964;DHT22;65820;44.726;37.764;2023-02-01T00:05:58;19.39;50.31
75964;DHT22;65820;44.726;37.764;2023-02-01T00:08:35;19.40;49.76
75964;DHT22;65820;44.726;37.764;2023-02-01T00:12:15;19.41;50.13
75964;DHT22;65820;44.726;37.764;2023-02-01T00:13:17;19.40;50.13
75964;DHT22;65820;44.726;37.764;2023-02-01T00:14:18;19.41;50.19
75964;DHT22;65820;44.726;37.764;2023-02-01T00:15:20;19.40;49.95
75964;DHT22;65820;44.726;37.764;2023-02-01T00:16:24;19.41;49.69
75964;DHT22;65820;44.726;37.764;2023-02-01T00:17:25;19.41;49.69
75964;DHT22;65820;44.726;37.764;2023-02-01T00:18:27;19.40;49.48
75964;DHT22;65820;44.726;37.764;2023-02-01T00:20:16;19.41;49.86
75964;DHT22;65820;44.726;37.764;2023-02-01T00:21:20;19.41;49.65
75964;DHT22;65820;44.726;37.764;2023-02-01T00:25:15;19.40;49.72
75964;DHT22;65820;44.726;37.764;2023-02-01T00:27:04;19.40;49.35
75964;DHT22;65820;44.726;37.764;2023-02-01T00:29:24;19.41;49.64
75964;DHT22;65820;44.726;37.764;2023-02-01T00:30:25;19.40;49.63
75964;DHT22;65820;44.726;37.764;2023-02-01T00:32:14;19.40;49.37
75964;DHT22;65820;44.726;37.764;2023-02-01T00:36:05;19.39;49.35
75964;DHT22;65820;44.726;37.764;2023-02-01T00:38:25;19.39;49.35
75964;DHT22;65820;44.726;37.764;2023-02-01T00:41:11;19.39;49.59
75964;DHT22;65820;44.726;37.764;2023-02-01T00:42:13;19.39;49.40
75964;DHT22;65820;44.726;37.764;2023-02-01T00:44:03;19.38;49.20
75964;DHT22;65820;44.726;37.764;2023-02-01T00:45:05;19.37;49.26
75964;DHT22;65820;44.726;37.764;2023-02-01T00:52:18;19.37;49.21
75964;DHT22;65820;44.726;37.764;2023-02-01T00:55:48;19.36;49.24
75964;DHT22;65820;44.726;37.764;2023-02-01T00:58:55;19.36;49.14
75964;DHT22;65820;44.726;37.764;2023-02-01T01:01:33;19.36;49.05
75964;DHT22;65820;44.726;37.764;2023-02-01T01:02:34;19.36;49.05
75964;DHT22;65820;44.726;37.764;2023-02-01T01:03:39;19.35;49.27
75964;DHT22;65820;44.726;37.764;2023-02-01T01:04:40;19.35;48.93
75964;DHT22;65820;44.726;37.764;2023-02-01T01:06:37;19.35;48.85
75964;DHT22;65820;44.726;37.764;2023-02-01T01:08:34;19.36;48.95
75964;DHT22;65820;44.726;37.764;2023-02-01T01:15:29;19.33;48.98
75964;DHT22;65820;44.726;37.764;2023-02-01T01:17:19;19.35;49.05
75964;DHT22;65820;44.726;37.764;2023-02-01T01:19:08;19.35;48.92
75964;DHT22;65820;44.726;37.764;2023-02-01T01:20:59;19.32;48.95
75964;DHT22;65820;44.726;37.764;2023-02-01T01:22:48;19.32;48.90
75964;DHT22;65820;44.726;37.764;2023-02-01T01:24:38;19.32;48.82
75964;DHT22;65820;44.726;37.764;2023-02-01T01:25:39;19.32;48.81
75964;DHT22;65820;44.726;37.764;2023-02-01T01:27:36;19.33;48.75
75964;DHT22;65820;44.726;37.764;2023-02-01T01:28:40;19.33;48.73
75964;DHT22;65820;44.726;37.764;2023-02-01T01:30:30;19.33;48.66
75964;DHT22;65820;44.726;37.764;2023-02-01T01:32:19;19.32;48.59
75964;DHT22;65820;44.726;37.764;2023-02-01T01:33:21;19.33;48.72
75964;DHT22;65820;44.726;37.764;2023-02-01T01:34:22;19.33;48.63
75964;DHT22;65820;44.726;37.764;2023-02-01T01:35:24;19.35;48.70
75964;DHT22;65820;44.726;37.764;2023-02-01T01:36:27;19.32;48.63
75964;DHT22;65820;44.726;37.764;2023-02-01T01:37:28;19.35;48.58
75964;DHT22;65820;44.726;37.764;2023-02-01T01:40:29;19.36;48.61
75964;DHT22;65820;44.726;37.764;2023-02-01T01:44:59;19.35;48.53
75964;DHT22;65820;44.726;37.764;2023-02-01T01:46:03;19.33;48.53
75964;DHT22;65820;44.726;37.764;2023-02-01T01:47:04;19.35;48.45
75964;DHT22;65820;44.726;37.764;2023-02-01T01:48:27;19.33;48.46
75964;DHT22;65820;44.726;37.764;2023-02-01T01:49:30;19.36;48.50
75964;DHT22;65820;44.726;37.764;2023-02-01T01:50:38;19.36;48.54
75964;DHT22;65820;44.726;37.764;2023-02-01T01:51:46;19.35;48.53
75964;DHT22;65820;44.726;37.764;2023-02-01T01:52:50;19.35;48.41
75964;DHT22;65820;44.726;37.764;2023-02-01T01:55:32;19.36;48.48
75964;DHT22;65820;44.726;37.764;2023-02-01T01:56:35;19.36;48.49
75964;DHT22;65820;44.726;37.764;2023-02-01T02:00:12;19.35;48.34
75964;DHT22;65820;44.726;37.764;2023-02-01T02:01:19;19.36;48.38
75964;DHT22;65820;44.726;37.764;2023-02-01T02:03:57;19.35;48.30
75964;DHT22;65820;44.726;37.764;2023-02-01T02:07:50;19.35;48.35
75964;DHT22;65820;44.726;37.764;2023-02-01T02:08:53;19.33;48.32
75964;DHT22;65820;44.726;37.764;2023-02-01T02:09:55;19.33;48.16
75964;DHT22;65820;44.726;37.764;2023-02-01T02:10:56;19.33;48.23
75964;DHT22;65820;44.726;37.764;2023-02-01T02:12:00;19.33;48.22
75964;DHT22;65820;44.726;37.764;2023-02-01T02:13:02;19.35;48.24
75964;DHT22;65820;44.726;37.764;2023-02-01T02:14:06;19.33;48.27
75964;DHT22;65820;44.726;37.764;2023-02-01T02:15:13;19.35;48.20
75964;DHT22;65820;44.726;37.764;2023-02-01T02:18:12;19.35;48.08
75964;DHT22;65820;44.726;37.764;2023-02-01T02:23:03;19.36;48.08
75964;DHT22;65820;44.726;37.764;2023-02-01T02:31:07;19.35;47.96
75964;DHT22;65820;44.726;37.764;2023-02-01T02:34:46;19.33;47.97
75964;DHT22;65820;44.726;37.764;2023-02-01T02:36:03;19.32;47.97
75964;DHT22;65820;44.726;37.764;2023-02-01T02:45:09;19.32;47.94
75964;DHT22;65820;44.726;37.764;2023-02-01T02:46:38;19.33;47.91
75964;DHT22;65820;44.726;37.764;2023-02-01T02:48:27;19.32;47.95
75964;DHT22;65820;44.726;37.764;2023-02-01T02:49:51;19.32;47.86
75964;DHT22;65820;44.726;37.764;2023-02-01T02:51:19;19.32;47.83
75964;DHT22;65820;44.726;37.764;2023-02-01T02:52:53;19.32;47.91
75964;DHT22;65820;44.726;37.764;2023-02-01T02:55:05;19.31;47.84
75964;DHT22;65820;44.726;37.764;2023-02-01T02:56:10;19.32;48.42
75964;DHT22;65820;44.726;37.764;2023-02-01T02:57:34;19.32;48.49
75964;DHT22;65820;44.726;37.764;2023-02-01T02:58:56;19.32;48.37
75964;DHT22;65820;44.726;37.764;2023-02-01T03:00:19;19.35;48.08
75964;DHT22;65820;44.726;37.764;2023-02-01T03:01:41;19.37;48.18
75964;DHT22;65820;44.726;37.764;2023-02-01T03:03:02;19.38;48.29
75964;DHT22;65820;44.726;37.764;2023-02-01T03:04:22;19.39;48.01
75964;DHT22;65820;44.726;37.764;2023-02-01T03:05:24;19.40;48.31
75964;DHT22;65820;44.726;37.764;2023-02-01T03:06:26;19.42;48.08
75964;DHT22;65820;44.726;37.764;2023-02-01T03:11:49;19.45;48.26
75964;DHT22;65820;44.726;37.764;2023-02-01T03:13:18;19.46;48.34
75964;DHT22;65820;44.726;37.764;2023-02-01T03:14:23;19.46;48.22
75964;DHT22;65820;44.726;37.764;2023-02-01T03:17:04;19.48;48.12
75964;DHT22;65820;44.726;37.764;2023-02-01T03:18:13;19.50;47.89
75964;DHT22;65820;44.726;37.764;2023-02-01T03:20:25;19.50;47.91
75964;DHT22;65820;44.726;37.764;2023-02-01T03:21:57;19.48;47.73
75964;DHT22;65820;44.726;37.764;2023-02-01T03:22:59;19.51;47.58
75964;DHT22;65820;44.726;37.764;2023-02-01T03:24:05;19.51;47.96
75964;DHT22;65820;44.726;37.764;2023-02-01T03:25:16;19.52;48.21
75964;DHT22;65820;44.726;37.764;2023-02-01T03:26:21;19.50;48.24
75964;DHT22;65820;44.726;37.764;2023-02-01T03:27:35;19.51;48.23
75964;DHT22;65820;44.726;37.764;2023-02-01T03:29:32;19.50;47.95
75964;DHT22;65820;44.726;37.764;2023-02-01T03:30:41;19.50;47.77
75964;DHT22;65820;44.726;37.764;2023-02-01T03:31:45;19.51;47.75
75964;DHT22;65820;44.726;37.764;2023-02-01T03:32:52;19.51;47.69
75964;DHT22;65820;44.726;37.764;2023-02-01T03:34:03;19.52;47.60
75964;DHT22;65820;44.726;37.764;2023-02-01T03:36:13;19.52;47.77
75964;DHT22;65820;44.726;37.764;2023-02-01T03:37:24;19.52;47.89
75964;DHT22;65820;44.726;37.764;2023-02-01T03:38:40;19.53;47.67
75964;DHT22;65820;44.726;37.764;2023-02-01T03:39:54;19.52;47.70
75964;DHT22;65820;44.726;37.764;2023-02-01T03:42:54;19.53;47.68
75964;DHT22;65820;44.726;37.764;2023-02-01T03:45:17;19.52;47.53
75964;DHT22;65820;44.726;37.764;2023-02-01T03:46:33;19.54;47.70
75964;DHT22;65820;44.726;37.764;2023-02-01T03:47:42;19.53;47.67
75964;DHT22;65820;44.726;37.764;2023-02-01T03:48:44;19.53;47.50
75964;DHT22;65820;44.726;37.764;2023-02-01T03:49:47;19.54;47.46
75964;DHT22;65820;44.726;37.764;2023-02-01T03:50:52;19.54;47.43
75964;DHT22;65820;44.726;37.764;2023-02-01T03:51:55;19.53;47.42
75964;DHT22;65820;44.726;37.764;2023-02-01T03:53:16;19.55;47.44
75964;DHT22;65820;44.726;37.764;2023-02-01T03:54:19;19.56;47.70
75964;DHT22;65820;44.726;37.764;2023-02-01T03:55:22;19.54;47.70
75964;DHT22;65820;44.726;37.764;2023-02-01T03:56:25;19.54;47.50
75964;DHT22;65820;44.726;37.764;2023-02-01T03:58:18;19.55;47.18
75964;DHT22;65820;44.726;37.764;2023-02-01T03:59:20;19.56;47.18
75964;DHT22;65820;44.726;37.764;2023-02-01T04:00:24;19.56;47.47
75964;DHT22;65820;44.726;37.764;2023-02-01T04:01:27;19.58;47.53
75964;DHT22;65820;44.726;37.764;2023-02-01T04:02:29;19.57;47.24
75964;DHT22;65820;44.726;37.764;2023-02-01T04:03:30;19.56;47.31
75964;DHT22;65820;44.726;37.764;2023-02-01T04:04:34;19.58;47.14
75964;DHT22;65820;44.726;37.764;2023-02-01T04:05:36;19.57;47.16
75964;DHT22;65820;44.726;37.764;2023-02-01T04:06:40;19.57;47.22
75964;DHT22;65820;44.726;37.764;2023-02-01T04:08:32;19.57;47.07
75964;DHT22;65820;44.726;37.764;2023-02-01T04:09:33;19.59;47.10
75964;DHT22;65820;44.726;37.764;2023-02-01T04:10:34;19.59;46.96
75964;DHT22;65820;44.726;37.764;2023-02-01T04:11:36;19.59;46.89
75964;DHT22;65820;44.726;37.764;2023-02-01T04:13:25;19.59;46.91
75964;DHT22;65820;44.726;37.764;2023-02-01T04:14:26;19.59;46.91
75964;DHT22;65820;44.726;37.764;2023-02-01T04:15:27;19.60;46.97
75964;DHT22;65820;44.726;37.764;2023-02-01T04:17:17;19.59;46.89
75964;DHT22;65820;44.726;37.764;2023-02-01T04:18:19;19.59;46.95
75964;DHT22;65820;44.726;37.764;2023-02-01T04:19:20;19.59;47.27
75964;DHT22;65820;44.726;37.764;2023-02-01T04:20:22;19.61;47.38
75964;DHT22;65820;44.726;37.764;2023-02-01T04:21:24;19.62;47.36
75964;DHT22;65820;44.726;37.764;2023-02-01T04:22:25;19.62;47.25
75964;DHT22;65820;44.726;37.764;2023-02-01T04:23:32;19.63;47.05
75964;DHT22;65820;44.726;37.764;2023-02-01T04:24:33;19.65;47.24
75964;DHT22;65820;44.726;37.764;2023-02-01T04:25:38;19.66;47.49
75964;DHT22;65820;44.726;37.764;2023-02-01T04:26:39;19.65;48.39
75964;DHT22;65820;44.726;37.764;2023-02-01T04:27:41;19.66;48.32
75964;DHT22;65820;44.726;37.764;2023-02-01T04:28:42;19.65;48.19
75964;DHT22;65820;44.726;37.764;2023-02-01T04:29:43;19.65;48.43
75964;DHT22;65820;44.726;37.764;2023-02-01T04:30:46;19.65;48.45
75964;DHT22;65820;44.726;37.764;2023-02-01T04:31:47;19.65;48.28
75964;DHT22;65820;44.726;37.764;2023-02-01T04:32:50;19.66;48.09
75964;DHT22;65820;44.726;37.764;2023-02-01T04:33:52;19.67;48.15
75964;DHT22;65820;44.726;37.764;2023-02-01T04:34:54;19.66;48.33
75964;DHT22;65820;44.726;37.764;2023-02-01T04:35:55;19.67;48.25
75964;DHT22;65820;44.726;37.764;2023-02-01T04:36:56;19.67;48.08
75964;DHT22;65820;44.726;37.764;2023-02-01T04:37:58;19.67;48.21
75964;DHT22;65820;44.726;37.764;2023-02-01T04:38:59;19.67;47.76
75964;DHT22;65820;44.726;37.764;2023-02-01T04:40:01;19.67;47.39
75964;DHT22;65820;44.726;37.764;2023-02-01T04:41:04;19.68;46.97
75964;DHT22;65820;44.726;37.764;2023-02-01T04:42:05;19.69;46.86
75964;DHT22;65820;44.726;37.764;2023-02-01T04:43:07;19.69;46.89
75964;DHT22;65820;44.726;37.764;2023-02-01T04:44:14;19.69;47.71
75964;DHT22;65820;44.726;37.764;2023-02-01T04:45:16;19.69;47.40
75964;DHT22;65820;44.726;37.764;2023-02-01T04:46:18;19.70;47.13
75964;DHT22;65820;44.726;37.764;2023-02-01T04:48:07;19.69;47.17
75964;DHT22;65820;44.726;37.764;2023-02-01T04:49:13;19.70;47.15
75964;DHT22;65820;44.726;37.764;2023-02-01T04:50:14;19.70;47.17
75964;DHT22;65820;44.726;37.764;2023-02-01T04:51:16;19.70;47.12
75964;DHT22;65820;44.726;37.764;2023-02-01T04:52:18;19.70;46.88
75964;DHT22;65820;44.726;37.764;2023-02-01T04:53:20;19.70;47.09
75964;DHT22;65820;44.726;37.764;2023-02-01T04:54:23;19.70;46.85
75964;DHT22;65820;44.726;37.764;2023-02-01T04:55:25;19.70;47.40
75964;DHT22;65820;44.726;37.764;2023-02-01T04:56:26;19.72;46.70
75964;DHT22;65820;44.726;37.764;2023-02-01T04:57:27;19.71;46.95
75964;DHT22;65820;44.726;37.764;2023-02-01T04:58:29;19.70;47.15
75964;DHT22;65820;44.726;37.764;2023-02-01T04:59:30;19.70;47.31
75964;DHT22;65820;44.726;37.764;2023-02-01T05:00:31;19.71;47.18
75964;DHT22;65820;44.726;37.764;2023-02-01T05:01:33;19.71;47.05
75964;DHT22;65820;44.726;37.764;2023-02-01T05:02:34;19.71;46.74
75964;DHT22;65820;44.726;37.764;2023-02-01T05:03:36;19.70;46.76
75964;DHT22;65820;44.726;37.764;2023-02-01T05:04:39;19.71;46.57
75964;DHT22;65820;44.726;37.764;2023-02-01T05:05:41;19.71;46.68
75964;DHT22;65820;44.726;37.764;2023-02-01T05:06:42;19.70;46.85
75964;DHT22;65820;44.726;37.764;2023-02-01T05:07:45;19.71;46.79
75964;DHT22;65820;44.726;37.764;2023-02-01T05:08:47;19.72;46.93
75964;DHT22;65820;44.726;37.764;2023-02-01T05:09:48;19.70;46.59
75964;DHT22;65820;44.726;37.764;2023-02-01T05:10:52;19.71;46.54
75964;DHT22;65820;44.726;37.764;2023-02-01T05:11:53;19.71;46.70
75964;DHT22;65820;44.726;37.764;2023-02-01T05:13:13;19.71;46.46
75964;DHT22;65820;44.726;37.764;2023-02-01T05:14:33;19.71;46.67
75964;DHT22;65820;44.726;37.764;2023-02-01T05:15:34;19.71;46.54
75964;DHT22;65820;44.726;37.764;2023-02-01T05:16:36;19.71;46.72
75964;DHT22;65820;44.726;37.764;2023-02-01T05:17:37;19.71;46.49
75964;DHT22;65820;44.726;37.764;2023-02-01T05:18:41;19.70;46.57
75964;DHT22;65820;44.726;37.764;2023-02-01T05:19:42;19.71;46.43
75964;DHT22;65820;44.726;37.764;2023-02-01T05:20:44;19.71;46.68
75964;DHT22;65820;44.726;37.764;2023-02-01T05:21:45;19.71;46.75
75964;DHT22;65820;44.726;37.764;2023-02-01T05:22:46;19.71;46.51
75964;DHT22;65820;44.726;37.764;2023-02-01T05:23:48;19.72;46.71
75964;DHT22;65820;44.726;37.764;2023-02-01T05:25:07;19.72;46.52
75964;DHT22;65820;44.726;37.764;2023-02-01T05:26:09;19.73;46.60
75964;DHT22;65820;44.726;37.764;2023-02-01T05:27:10;19.71;46.64
75964;DHT22;65820;44.726;37.764;2023-02-01T05:28:12;19.73;46.60
75964;DHT22;65820;44.726;37.764;2023-02-01T05:29:16;19.72;46.34
75964;DHT22;65820;44.726;37.764;2023-02-01T05:30:18;19.73;46.40
75964;DHT22;65820;44.726;37.764;2023-02-01T05:32:09;19.72;46.51
75964;DHT22;65820;44.726;37.764;2023-02-01T05:33:10;19.72;46.39
75964;DHT22;65820;44.726;37.764;2023-02-01T05:34:12;19.71;46.51
75964;DHT22;65820;44.726;37.764;2023-02-01T05:35:14;19.72;46.43
75964;DHT22;65820;44.726;37.764;2023-02-01T05:36:15;19.72;46.60
75964;DHT22;65820;44.726;37.764;2023-02-01T05:37:16;19.72;46.51
75964;DHT22;65820;44.726;37.764;2023-02-01T05:38:18;19.72;46.45
75964;DHT22;65820;44.726;37.764;2023-02-01T05:39:19;19.72;46.68
75964;DHT22;65820;44.726;37.764;2023-02-01T05:40:21;19.72;46.55
75964;DHT22;65820;44.726;37.764;2023-02-01T05:41:22;19.73;46.57
75964;DHT22;65820;44.726;37.764;2023-02-01T05:42:23;19.72;46.37
75964;DHT22;65820;44.726;37.764;2023-02-01T05:43:25;19.72;46.48
75964;DHT22;65820;44.726;37.764;2023-02-01T05:44:26;19.72;46.29
75964;DHT22;65820;44.726;37.764;2023-02-01T05:46:16;19.72;46.32
75964;DHT22;65820;44.726;37.764;2023-02-01T05:47:17;19.73;46.28
75964;DHT22;65820;44.726;37.764;2023-02-01T05:48:19;19.72;46.37
75964;DHT22;65820;44.726;37.764;2023-02-01T05:49:20;19.72;46.16
75964;DHT22;65820;44.726;37.764;2023-02-01T05:50:22;19.73;46.34
75964;DHT22;65820;44.726;37.764;2023-02-01T05:51:30;19.72;46.34
75964;DHT22;65820;44.726;37.764;2023-02-01T05:52:32;19.72;46.42
75964;DHT22;65820;44.726;37.764;2023-02-01T05:53:33;19.73;46.26
75964;DHT22;65820;44.726;37.764;2023-02-01T05:54:35;19.73;46.19
75964;DHT22;65820;44.726;37.764;2023-02-01T05:55:36;19.73;46.37
75964;DHT22;65820;44.726;37.764;2023-02-01T05:56:38;19.73;46.19
75964;DHT22;65820;44.726;37.764;2023-02-01T05:57:41;19.73;46.33
75964;DHT22;65820;44.726;37.764;2023-02-01T05:58:43;19.74;46.14
75964;DHT22;65820;44.726;37.764;2023-02-01T05:59:44;19.73;46.49
75964;DHT22;65820;44.726;37.764;2023-02-01T06:00:46;19.74;46.29
75964;DHT22;65820;44.726;37.764;2023-02-01T06:01:47;19.75;46.36
75964;DHT22;65820;44.726;37.764;2023-02-01T06:02:49;19.74;46.28
75964;DHT22;65820;44.726;37.764;2023-02-01T06:03:50;19.73;46.09
75964;DHT22;65820;44.726;37.764;2023-02-01T06:04:51;19.75;46.22
75964;DHT22;65820;44.726;37.764;2023-02-01T06:05:53;19.73;46.25
75964;DHT22;65820;44.726;37.764;2023-02-01T06:06:54;19.74;46.25
75964;DHT22;65820;44.726;37.764;2023-02-01T06:07:55;19.75;46.80
75964;DHT22;65820;44.726;37.764;2023-02-01T06:08:57;19.74;46.73
75964;DHT22;65820;44.726;37.764;2023-02-01T06:09:59;19.75;46.15
75964;DHT22;65820;44.726;37.764;2023-02-01T06:11:04;19.75;46.61
75964;DHT22;65820;44.726;37.764;2023-02-01T06:12:06;19.75;46.06
75964;DHT22;65820;44.726;37.764;2023-02-01T06:13:07;19.75;46.15
75964;DHT22;65820;44.726;37.764;2023-02-01T06:14:09;19.74;46.87
75964;DHT22;65820;44.726;37.764;2023-02-01T06:15:12;19.76;46.53
75964;DHT22;65820;44.726;37.764;2023-02-01T06:16:13;19.75;46.62
75964;DHT22;65820;44.726;37.764;2023-02-01T06:17:16;19.76;46.56
75964;DHT22;65820;44.726;37.764;2023-02-01T06:18:18;19.75;46.09
75964;DHT22;65820;44.726;37.764;2023-02-01T06:19:19;19.77;46.95
75964;DHT22;65820;44.726;37.764;2023-02-01T06:20:21;19.76;46.10
75964;DHT22;65820;44.726;37.764;2023-02-01T06:21:23;19.76;46.16
75964;DHT22;65820;44.726;37.764;2023-02-01T06:22:25;19.76;46.06
75964;DHT22;65820;44.726;37.764;2023-02-01T06:23:29;19.76;46.32
75964;DHT22;65820;44.726;37.764;2023-02-01T06:24:31;19.76;46.69
75964;DHT22;65820;44.726;37.764;2023-02-01T06:25:33;19.76;46.20
75964;DHT22;65820;44.726;37.764;2023-02-01T06:26:34;19.77;46.54
75964;DHT22;65820;44.726;37.764;2023-02-01T06:27:35;19.77;46.15
75964;DHT22;65820;44.726;37.764;2023-02-01T06:28:37;19.77;46.41
75964;DHT22;65820;44.726;37.764;2023-02-01T06:29:39;19.76;46.12
75964;DHT22;65820;44.726;37.764;2023-02-01T06:30:41;19.76;46.02
75964;DHT22;65820;44.726;37.764;2023-02-01T06:31:46;19.77;46.22
75964;DHT22;65820;44.726;37.764;2023-02-01T06:32:51;19.76;46.46
75964;DHT22;65820;44.726;37.764;2023-02-01T06:33:55;19.77;45.94
75964;DHT22;65820;44.726;37.764;2023-02-01T06:34:56;19.80;46.16
75964;DHT22;65820;44.726;37.764;2023-02-01T06:35:59;19.77;46.31
75964;DHT22;65820;44.726;37.764;2023-02-01T06:37:00;19.77;45.99
75964;DHT22;65820;44.726;37.764;2023-02-01T06:38:02;19.77;45.90
75964;DHT22;65820;44.726;37.764;2023-02-01T06:39:03;19.77;46.15
75964;DHT22;65820;44.726;37.764;2023-02-01T06:40:07;19.77;46.39
75964;DHT22;65820;44.726;37.764;2023-02-01T06:41:09;19.79;46.41
75964;DHT22;65820;44.726;37.764;2023-02-01T06:42:12;19.79;46.06
75964;DHT22;65820;44.726;37.764;2023-02-01T06:43:13;19.79;45.83
75964;DHT22;65820;44.726;37.764;2023-02-01T06:44:15;19.79;46.12
75964;DHT22;65820;44.726;37.764;2023-02-01T06:45:16;19.79;47.00
75964;DHT22;65820;44.726;37.764;2023-02-01T06:47:53;19.80;46.65
75964;DHT22;65820;44.726;37.764;2023-02-01T06:48:55;19.80;45.81
75964;DHT22;65820;44.726;37.764;2023-02-01T06:49:56;19.80;46.32
75964;DHT22;65820;44.726;37.764;2023-02-01T06:50:58;19.80;45.74
75964;DHT22;65820;44.726;37.764;2023-02-01T06:52:47;19.79;45.72
75964;DHT22;65820;44.726;37.764;2023-02-01T06:53:48;19.80;46.02
75964;DHT22;65820;44.726;37.764;2023-02-01T06:54:50;19.81;46.03
75964;DHT22;65820;44.726;37.764;2023-02-01T06:56:00;19.83;46.02
75964;DHT22;65820;44.726;37.764;2023-02-01T06:57:04;19.85;46.75
75964;DHT22;65820;44.726;37.764;2023-02-01T06:58:05;19.87;46.97
75964;DHT22;65820;44.726;37.764;2023-02-01T06:59:09;19.89;47.33
75964;DHT22;65820;44.726;37.764;2023-02-01T07:00:11;19.90;47.66
75964;DHT22;65820;44.726;37.764;2023-02-01T07:01:13;19.91;47.83
75964;DHT22;65820;44.726;37.764;2023-02-01T07:02:14;19.92;47.93
75964;DHT22;65820;44.726;37.764;2023-02-01T07:03:16;19.96;48.04
75964;DHT22;65820;44.726;37.764;2023-02-01T07:04:18;19.97;47.92
75964;DHT22;65820;44.726;37.764;2023-02-01T07:05:19;19.98;47.93
75964;DHT22;65820;44.726;37.764;2023-02-01T07:06:23;19.99;47.94
75964;DHT22;65820;44.726;37.764;2023-02-01T07:07:24;20.01;47.88
75964;DHT22;65820;44.726;37.764;2023-02-01T07:08:30;20.01;47.83
75964;DHT22;65820;44.726;37.764;2023-02-01T07:09:31;20.03;47.67
75964;DHT22;65820;44.726;37.764;2023-02-01T07:10:34;20.05;47.67
75964;DHT22;65820;44.726;37.764;2023-02-01T07:11:35;20.05;47.63
75964;DHT22;65820;44.726;37.764;2023-02-01T07:12:38;20.05;47.50
75964;DHT22;65820;44.726;37.764;2023-02-01T07:13:40;20.06;47.55
75964;DHT22;65820;44.726;37.764;2023-02-01T07:14:41;20.05;47.41
75964;DHT22;65820;44.726;37.764;2023-02-01T07:15:42;20.07;47.45
75964;DHT22;65820;44.726;37.764;2023-02-01T07:16:44;20.09;47.50
75964;DHT22;65820;44.726;37.764;2023-02-01T07:17:45;20.10;47.40
75964;DHT22;65820;44.726;37.764;2023-02-01T07:19:35;20.11;47.06
75964;DHT22;65820;44.726;37.764;2023-02-01T07:20:36;20.09;46.57
75964;DHT22;65820;44.726;37.764;2023-02-01T07:21:37;20.09;46.67
75964;DHT22;65820;44.726;37.764;2023-02-01T07:22:41;20.09;46.47
75964;DHT22;65820;44.726;37.764;2023-02-01T07:23:46;20.07;46.49
75964;DHT22;65820;44.726;37.764;2023-02-01T07:24:47;20.07;46.41
75964;DHT22;65820;44.726;37.764;2023-02-01T07:25:48;20.05;46.38
75964;DHT22;65820;44.726;37.764;2023-02-01T07:26:50;20.05;46.39
75964;DHT22;65820;44.726;37.764;2023-02-01T07:27:51;20.04;46.41
75964;DHT22;65820;44.726;37.764;2023-02-01T07:28:56;20.05;46.52
75964;DHT22;65820;44.726;37.764;2023-02-01T07:29:57;20.03;46.39
75964;DHT22;65820;44.726;37.764;2023-02-01T07:31:10;20.03;46.45
75964;DHT22;65820;44.726;37.764;2023-02-01T07:32:12;20.02;46.56
75964;DHT22;65820;44.726;37.764;2023-02-01T07:33:13;20.04;46.59
75964;DHT22;65820;44.726;37.764;2023-02-01T07:34:15;20.02;46.34
75964;DHT22;65820;44.726;37.764;2023-02-01T07:35:16;20.02;46.44
75964;DHT22;65820;44.726;37.764;2023-02-01T07:36:18;20.03;46.55
75964;DHT22;65820;44.726;37.764;2023-02-01T07:37:20;20.01;46.53
75964;DHT22;65820;44.726;37.764;2023-02-01T07:38:21;20.02;46.57
75964;DHT22;65820;44.726;37.764;2023-02-01T07:39:24;20.02;46.60
75964;DHT22;65820;44.726;37.764;2023-02-01T07:40:29;20.02;46.48
75964;DHT22;65820;44.726;37.764;2023-02-01T07:41:31;20.02;46.54
75964;DHT22;65820;44.726;37.764;2023-02-01T07:42:33;20.02;46.35
75964;DHT22;65820;44.726;37.764;2023-02-01T07:43:35;20.02;46.47
75964;DHT22;65820;44.726;37.764;2023-02-01T07:44:36;20.01;46.46
75964;DHT22;65820;44.726;37.764;2023-02-01T07:45:38;20.03;46.46
75964;DHT22;65820;44.726;37.764;2023-02-01T07:46:39;20.01;46.47
75964;DHT22;65820;44.726;37.764;2023-02-01T07:47:43;20.02;46.38
75964;DHT22;65820;44.726;37.764;2023-02-01T07:48:44;20.01;46.45
75964;DHT22;65820;44.726;37.764;2023-02-01T07:49:49;20.01;46.44
75964;DHT22;65820;44.726;37.764;2023-02-01T07:51:01;20.01;46.39
75964;DHT22;65820;44.726;37.764;2023-02-01T07:52:03;20.01;46.38
75964;DHT22;65820;44.726;37.764;2023-02-01T07:53:04;20.02;46.40
75964;DHT22;65820;44.726;37.764;2023-02-01T07:54:05;20.02;46.30
75964;DHT22;65820;44.726;37.764;2023-02-01T07:55:07;20.02;46.36
75964;DHT22;65820;44.726;37.764;2023-02-01T07:56:14;20.02;46.41
75964;DHT22;65820;44.726;37.764;2023-02-01T07:57:16;20.01;46.41
75964;DHT22;65820;44.726;37.764;2023-02-01T07:58:17;20.01;46.45
75964;DHT22;65820;44.726;37.764;2023-02-01T07:59:18;20.02;46.64
75964;DHT22;65820;44.726;37.764;2023-02-01T08:00:20;20.02;46.53
75964;DHT22;65820;44.726;37.764;2023-02-01T08:01:40;20.03;46.77
75964;DHT22;65820;44.726;37.764;2023-02-01T08:02:41;20.04;46.91
75964;DHT22;65820;44.726;37.764;2023-02-01T08:03:42;20.07;47.14
75964;DHT22;65820;44.726;37.764;2023-02-01T08:04:44;20.06;47.18
75964;DHT22;65820;44.726;37.764;2023-02-01T08:05:45;20.10;47.05
75964;DHT22;65820;44.726;37.764;2023-02-01T08:06:46;20.10;47.13
75964;DHT22;65820;44.726;37.764;2023-02-01T08:07:50;20.13;47.04
75964;DHT22;65820;44.726;37.764;2023-02-01T08:08:52;20.12;47.10
75964;DHT22;65820;44.726;37.764;2023-02-01T08:09:54;20.14;47.09
75964;DHT22;65820;44.726;37.764;2023-02-01T08:10:59;20.15;47.01
75964;DHT22;65820;44.726;37.764;2023-02-01T08:12:01;20.16;47.01
75964;DHT22;65820;44.726;37.764;2023-02-01T08:13:02;20.16;46.97
75964;DHT22;65820;44.726;37.764;2023-02-01T08:14:04;20.18;46.86
75964;DHT22;65820;44.726;37.764;2023-02-01T08:15:09;20.20;46.74
75964;DHT22;65820;44.726;37.764;2023-02-01T08:16:15;20.19;46.82
75964;DHT22;65820;44.726;37.764;2023-02-01T08:17:16;20.19;46.74
75964;DHT22;65820;44.726;37.764;2023-02-01T08:18:17;20.20;46.21
75964;DHT22;65820;44.726;37.764;2023-02-01T08:19:19;20.19;45.84
75964;DHT22;65820;44.726;37.764;2023-02-01T08:20:21;20.18;46.19